sensor_id;sensor_type;location;lat;lon;timestamp;P1;durP1;ratioP1;P2;durP2;ratioP2
9948;SDS011;5013;51.840;8.276;2023-11-21T00:00:44;12.60;;;11.30;;
9948;SDS011;5013;51.840;8.276;2023-11-21T00:03:10;13.17;;;11.80;;
9948;SDS011;5013;51.840;8.276;2023-11-21T00:05:39;22.20;;;15.00;;
9948;SDS011;5013;51.840;8.276;2023-11-21T00:08:06;18.37;;;13.47;;
9948;SDS011;5013;51.840;8.276;2023-11-21T00:10:32;18.00;;;13.73;;
9948;SDS011;5013;51.840;8.276;2023-11-21T00:12:58;17.23;;;13.80;;
9948;SDS011;5013;51.840;8.276;2023-11-21T00:15:23;19.53;;;13.73;;
9948;SDS011;5013;51.840;8.276;2023-11-21T00:17:49;17.10;;;14.33;;
9948;SDS011;5013;51.840;8.276;2023-11-21T00:20:14;16.57;;;13.97;;
9948;SDS011;5013;51.840;8.276;2023-11-21T00:22:40;18.63;;;13.50;;
9948;SDS011;5013;51.840;8.276;2023-11-21T00:25:06;20.30;;;14.60;;
9948;SDS011;5013;51.840;8.276;2023-11-21T00:27:34;16.87;;;13.97;;
9948;SDS011;5013;51.840;8.276;2023-11-21T00:30:00;21.13;;;15.70;;
9948;SDS011;5013;51.840;8.276;2023-11-21T00:32:26;20.23;;;14.50;;
9948;SDS011;5013;51.840;8.276;2023-11-21T00:34:51;19.83;;;14.93;;
9948;SDS011;5013;51.840;8.276;2023-11-21T00:37:17;17.47;;;12.97;;
9948;SDS011;5013;51.840;8.276;2023-11-21T00:39:43;19.07;;;13.50;;
9948;SDS011;5013;51.840;8.276;2023-11-21T00:42:08;16.60;;;13.47;;
9948;SDS011;5013;51.840;8.276;2023-11-21T00:44:37;17.30;;;14.57;;
9948;SDS011;5013;51.840;8.276;2023-11-21T00:47:03;15.30;;;13.33;;
9948;SDS011;5013;51.840;8.276;2023-11-21T00:49:29;21.70;;;15.13;;
9948;SDS011;5013;51.840;8.276;2023-11-21T00:51:55;16.00;;;13.80;;
9948;SDS011;5013;51.840;8.276;2023-11-21T00:54:23;16.40;;;14.40;;
9948;SDS011;5013;51.840;8.276;2023-11-21T00:56:48;19.50;;;13.90;;
9948;SDS011;5013;51.840;8.276;2023-11-21T00:59:14;19.93;;;13.37;;
9948;SDS011;5013;51.840;8.276;2023-11-21T01:01:39;15.53;;;13.20;;
9948;SDS011;5013;51.840;8.276;2023-11-21T01:04:05;16.20;;;13.30;;
9948;SDS011;5013;51.840;8.276;2023-11-21T01:06:31;18.20;;;14.07;;
9948;SDS011;5013;51.840;8.276;2023-11-21T01:08:57;17.93;;;15.00;;
9948;SDS011;5013;51.840;8.276;2023-11-21T01:11:23;22.93;;;15.20;;
9948;SDS011;5013;51.840;8.276;2023-11-21T01:13:48;19.97;;;14.70;;
9948;SDS011;5013;51.840;8.276;2023-11-21T01:16:14;19.50;;;15.60;;
9948;SDS011;5013;51.840;8.276;2023-11-21T01:18:40;25.33;;;17.57;;
9948;SDS011;5013;51.840;8.276;2023-11-21T01:21:05;27.10;;;17.60;;
9948;SDS011;5013;51.840;8.276;2023-11-21T01:23:32;28.30;;;17.73;;
9948;SDS011;5013;51.840;8.276;2023-11-21T01:25:58;26.83;;;17.33;;
9948;SDS011;5013;51.840;8.276;2023-11-21T01:28:23;19.70;;;15.47;;
9948;SDS011;5013;51.840;8.276;2023-11-21T01:30:49;23.57;;;16.67;;
9948;SDS011;5013;51.840;8.276;2023-11-21T01:33:15;21.53;;;17.13;;
9948;SDS011;5013;51.840;8.276;2023-11-21T01:35:41;19.93;;;16.17;;
9948;SDS011;5013;51.840;8.276;2023-11-21T01:38:07;21.83;;;16.03;;
9948;SDS011;5013;51.840;8.276;2023-11-21T01:40:33;21.87;;;16.83;;
9948;SDS011;5013;51.840;8.276;2023-11-21T01:42:59;19.80;;;16.03;;
9948;SDS011;5013;51.840;8.276;2023-11-21T01:45:28;23.20;;;16.27;;
9948;SDS011;5013;51.840;8.276;2023-11-21T01:47:55;25.87;;;18.63;;
9948;SDS011;5013;51.840;8.276;2023-11-21T01:50:21;28.47;;;18.33;;
9948;SDS011;5013;51.840;8.276;2023-11-21T01:52:47;22.83;;;18.07;;
9948;SDS011;5013;51.840;8.276;2023-11-21T01:55:14;28.73;;;18.97;;
9948;SDS011;5013;51.840;8.276;2023-11-21T01:57:45;24.53;;;17.73;;
9948;SDS011;5013;51.840;8.276;2023-11-21T02:00:11;21.53;;;17.87;;
9948;SDS011;5013;51.840;8.276;2023-11-21T02:02:47;25.97;;;17.63;;
9948;SDS011;5013;51.840;8.276;2023-11-21T02:05:17;23.40;;;16.87;;
9948;SDS011;5013;51.840;8.276;2023-11-21T02:07:43;23.37;;;17.30;;
9948;SDS011;5013;51.840;8.276;2023-11-21T02:10:12;22.70;;;17.13;;
9948;SDS011;5013;51.840;8.276;2023-11-21T02:12:44;21.00;;;17.03;;
9948;SDS011;5013;51.840;8.276;2023-11-21T02:15:10;29.90;;;18.20;;
9948;SDS011;5013;51.840;8.276;2023-11-21T02:17:42;24.03;;;17.93;;
9948;SDS011;5013;51.840;8.276;2023-11-21T02:20:12;23.47;;;17.43;;
9948;SDS011;5013;51.840;8.276;2023-11-21T02:22:41;19.07;;;17.00;;
9948;SDS011;5013;51.840;8.276;2023-11-21T02:25:07;22.73;;;15.83;;
9948;SDS011;5013;51.840;8.276;2023-11-21T02:27:33;18.80;;;15.43;;
9948;SDS011;5013;51.840;8.276;2023-11-21T02:29:59;19.90;;;15.87;;
9948;SDS011;5013;51.840;8.276;2023-11-21T02:32:26;21.57;;;16.60;;
9948;SDS011;5013;51.840;8.276;2023-11-21T02:34:51;22.73;;;17.10;;
9948;SDS011;5013;51.840;8.276;2023-11-21T02:37:17;25.43;;;15.30;;
9948;SDS011;5013;51.840;8.276;2023-11-21T02:39:42;18.90;;;15.70;;
9948;SDS011;5013;51.840;8.276;2023-11-21T02:42:08;21.63;;;15.77;;
9948;SDS011;5013;51.840;8.276;2023-11-21T02:44:34;24.03;;;17.03;;
9948;SDS011;5013;51.840;8.276;2023-11-21T02:46:59;17.10;;;15.37;;
9948;SDS011;5013;51.840;8.276;2023-11-21T02:49:25;26.37;;;16.70;;
9948;SDS011;5013;51.840;8.276;2023-11-21T02:51:53;22.13;;;18.00;;
9948;SDS011;5013;51.840;8.276;2023-11-21T02:54:20;23.27;;;15.60;;
9948;SDS011;5013;51.840;8.276;2023-11-21T02:56:47;17.40;;;15.33;;
9948;SDS011;5013;51.840;8.276;2023-11-21T02:59:14;24.90;;;17.53;;
9948;SDS011;5013;51.840;8.276;2023-11-21T03:01:40;18.57;;;16.37;;
9948;SDS011;5013;51.840;8.276;2023-11-21T03:04:06;22.07;;;17.87;;
9948;SDS011;5013;51.840;8.276;2023-11-21T03:06:32;19.83;;;17.73;;
9948;SDS011;5013;51.840;8.276;2023-11-21T03:08:57;21.87;;;17.07;;
9948;SDS011;5013;51.840;8.276;2023-11-21T03:11:23;23.70;;;18.30;;
9948;SDS011;5013;51.840;8.276;2023-11-21T03:13:48;21.83;;;17.40;;
9948;SDS011;5013;51.840;8.276;2023-11-21T03:16:15;20.73;;;17.27;;
9948;SDS011;5013;51.840;8.276;2023-11-21T03:18:41;22.37;;;17.10;;
9948;SDS011;5013;51.840;8.276;2023-11-21T03:21:07;21.67;;;18.07;;
9948;SDS011;5013;51.840;8.276;2023-11-21T03:23:36;23.90;;;17.23;;
9948;SDS011;5013;51.840;8.276;2023-11-21T03:26:02;23.47;;;16.87;;
9948;SDS011;5013;51.840;8.276;2023-11-21T03:28:28;23.30;;;17.63;;
9948;SDS011;5013;51.840;8.276;2023-11-21T03:30:55;22.63;;;17.80;;
9948;SDS011;5013;51.840;8.276;2023-11-21T03:33:21;23.83;;;17.20;;
9948;SDS011;5013;51.840;8.276;2023-11-21T03:35:47;26.17;;;18.33;;
9948;SDS011;5013;51.840;8.276;2023-11-21T03:38:14;25.53;;;18.33;;
9948;SDS011;5013;51.840;8.276;2023-11-21T03:40:40;24.80;;;18.37;;
9948;SDS011;5013;51.840;8.276;2023-11-21T03:43:06;17.57;;;15.83;;
9948;SDS011;5013;51.840;8.276;2023-11-21T03:45:32;22.63;;;17.13;;
9948;SDS011;5013;51.840;8.276;2023-11-21T03:47:57;25.70;;;17.23;;
9948;SDS011;5013;51.840;8.276;2023-11-21T03:50:23;19.27;;;16.20;;
9948;SDS011;5013;51.840;8.276;2023-11-21T03:52:48;22.63;;;15.73;;
9948;SDS011;5013;51.840;8.276;2023-11-21T03:55:14;23.43;;;17.50;;
9948;SDS011;5013;51.840;8.276;2023-11-21T03:57:40;19.53;;;16.67;;
9948;SDS011;5013;51.840;8.276;2023-11-21T04:00:05;25.60;;;18.33;;
9948;SDS011;5013;51.840;8.276;2023-11-21T04:02:33;20.87;;;16.43;;
9948;SDS011;5013;51.840;8.276;2023-11-21T04:04:59;23.27;;;18.70;;
9948;SDS011;5013;51.840;8.276;2023-11-21T04:07:25;24.83;;;17.40;;
9948;SDS011;5013;51.840;8.276;2023-11-21T04:09:50;24.83;;;18.17;;
9948;SDS011;5013;51.840;8.276;2023-11-21T04:12:16;25.23;;;17.23;;
9948;SDS011;5013;51.840;8.276;2023-11-21T04:14:41;27.17;;;17.60;;
9948;SDS011;5013;51.840;8.276;2023-11-21T04:17:07;20.03;;;17.23;;
9948;SDS011;5013;51.840;8.276;2023-11-21T04:19:32;23.17;;;16.63;;
9948;SDS011;5013;51.840;8.276;2023-11-21T04:21:58;27.23;;;17.57;;
9948;SDS011;5013;51.840;8.276;2023-11-21T04:24:23;22.87;;;17.93;;
9948;SDS011;5013;51.840;8.276;2023-11-21T04:26:49;26.07;;;17.03;;
9948;SDS011;5013;51.840;8.276;2023-11-21T04:29:14;21.03;;;17.57;;
9948;SDS011;5013;51.840;8.276;2023-11-21T04:31:40;22.03;;;16.57;;
9948;SDS011;5013;51.840;8.276;2023-11-21T04:34:06;22.17;;;17.07;;
9948;SDS011;5013;51.840;8.276;2023-11-21T04:36:33;21.30;;;17.47;;
9948;SDS011;5013;51.840;8.276;2023-11-21T04:38:59;24.33;;;18.80;;
9948;SDS011;5013;51.840;8.276;2023-11-21T04:41:25;25.63;;;19.30;;
9948;SDS011;5013;51.840;8.276;2023-11-21T04:43:51;30.47;;;20.93;;
9948;SDS011;5013;51.840;8.276;2023-11-21T04:46:16;23.03;;;17.70;;
9948;SDS011;5013;51.840;8.276;2023-11-21T04:48:42;27.27;;;19.83;;
9948;SDS011;5013;51.840;8.276;2023-11-21T04:51:08;30.40;;;18.47;;
9948;SDS011;5013;51.840;8.276;2023-11-21T04:53:34;20.90;;;18.33;;
9948;SDS011;5013;51.840;8.276;2023-11-21T04:56:00;22.80;;;17.57;;
9948;SDS011;5013;51.840;8.276;2023-11-21T04:58:25;32.47;;;18.30;;
9948;SDS011;5013;51.840;8.276;2023-11-21T05:00:51;22.10;;;18.03;;
9948;SDS011;5013;51.840;8.276;2023-11-21T05:03:16;28.97;;;18.80;;
9948;SDS011;5013;51.840;8.276;2023-11-21T05:05:42;24.13;;;20.13;;
9948;SDS011;5013;51.840;8.276;2023-11-21T05:08:07;24.43;;;19.17;;
9948;SDS011;5013;51.840;8.276;2023-11-21T05:10:33;24.00;;;19.13;;
9948;SDS011;5013;51.840;8.276;2023-11-21T05:12:59;29.47;;;19.27;;
9948;SDS011;5013;51.840;8.276;2023-11-21T05:15:25;23.63;;;17.77;;
9948;SDS011;5013;51.840;8.276;2023-11-21T05:17:52;22.23;;;17.47;;
9948;SDS011;5013;51.840;8.276;2023-11-21T05:20:18;21.43;;;17.50;;
9948;SDS011;5013;51.840;8.276;2023-11-21T05:22:48;24.63;;;18.43;;
9948;SDS011;5013;51.840;8.276;2023-11-21T05:25:14;20.13;;;17.37;;
9948;SDS011;5013;51.840;8.276;2023-11-21T05:27:41;23.23;;;17.70;;
9948;SDS011;5013;51.840;8.276;2023-11-21T05:30:07;23.73;;;17.27;;
9948;SDS011;5013;51.840;8.276;2023-11-21T05:32:37;20.33;;;15.90;;
9948;SDS011;5013;51.840;8.276;2023-11-21T05:35:03;21.13;;;16.80;;
9948;SDS011;5013;51.840;8.276;2023-11-21T05:37:34;22.30;;;18.63;;
9948;SDS011;5013;51.840;8.276;2023-11-21T05:40:00;22.93;;;18.23;;
9948;SDS011;5013;51.840;8.276;2023-11-21T05:42:31;20.60;;;17.33;;
9948;SDS011;5013;51.840;8.276;2023-11-21T05:45:00;24.40;;;20.77;;
9948;SDS011;5013;51.840;8.276;2023-11-21T05:47:42;22.53;;;18.87;;
9948;SDS011;5013;51.840;8.276;2023-11-21T05:50:10;29.10;;;19.53;;
9948;SDS011;5013;51.840;8.276;2023-11-21T05:52:39;29.93;;;20.23;;
9948;SDS011;5013;51.840;8.276;2023-11-21T05:55:06;27.27;;;19.50;;
9948;SDS011;5013;51.840;8.276;2023-11-21T05:57:33;28.97;;;19.27;;
9948;SDS011;5013;51.840;8.276;2023-11-21T06:00:01;25.83;;;19.87;;
9948;SDS011;5013;51.840;8.276;2023-11-21T06:02:28;27.27;;;20.77;;
9948;SDS011;5013;51.840;8.276;2023-11-21T06:04:53;25.23;;;19.17;;
9948;SDS011;5013;51.840;8.276;2023-11-21T06:07:19;26.70;;;18.90;;
9948;SDS011;5013;51.840;8.276;2023-11-21T06:09:46;22.57;;;18.67;;
9948;SDS011;5013;51.840;8.276;2023-11-21T06:12:13;25.27;;;19.03;;
9948;SDS011;5013;51.840;8.276;2023-11-21T06:14:41;26.70;;;21.13;;
9948;SDS011;5013;51.840;8.276;2023-11-21T06:17:06;32.07;;;21.23;;
9948;SDS011;5013;51.840;8.276;2023-11-21T06:19:32;29.03;;;21.27;;
9948;SDS011;5013;51.840;8.276;2023-11-21T06:21:57;25.03;;;19.40;;
9948;SDS011;5013;51.840;8.276;2023-11-21T06:24:23;27.30;;;22.17;;
9948;SDS011;5013;51.840;8.276;2023-11-21T06:26:48;30.83;;;21.57;;
9948;SDS011;5013;51.840;8.276;2023-11-21T06:29:14;31.53;;;21.10;;
9948;SDS011;5013;51.840;8.276;2023-11-21T06:31:40;28.80;;;20.70;;
9948;SDS011;5013;51.840;8.276;2023-11-21T06:34:05;34.43;;;21.77;;
9948;SDS011;5013;51.840;8.276;2023-11-21T06:36:31;32.23;;;22.23;;
9948;SDS011;5013;51.840;8.276;2023-11-21T06:38:56;29.57;;;21.70;;
9948;SDS011;5013;51.840;8.276;2023-11-21T06:41:22;39.27;;;23.77;;
9948;SDS011;5013;51.840;8.276;2023-11-21T06:43:48;34.73;;;20.80;;
9948;SDS011;5013;51.840;8.276;2023-11-21T06:46:14;33.07;;;22.70;;
9948;SDS011;5013;51.840;8.276;2023-11-21T06:48:41;38.77;;;24.43;;
9948;SDS011;5013;51.840;8.276;2023-11-21T06:51:07;40.23;;;25.10;;
9948;SDS011;5013;51.840;8.276;2023-11-21T06:53:33;33.33;;;23.27;;
9948;SDS011;5013;51.840;8.276;2023-11-21T06:55:59;31.33;;;23.80;;
9948;SDS011;5013;51.840;8.276;2023-11-21T06:58:24;32.13;;;24.27;;
9948;SDS011;5013;51.840;8.276;2023-11-21T07:00:50;30.53;;;24.40;;
9948;SDS011;5013;51.840;8.276;2023-11-21T07:03:17;30.53;;;23.53;;
9948;SDS011;5013;51.840;8.276;2023-11-21T07:05:44;26.27;;;20.63;;
9948;SDS011;5013;51.840;8.276;2023-11-21T07:08:10;34.33;;;23.00;;
9948;SDS011;5013;51.840;8.276;2023-11-21T07:10:35;38.17;;;24.30;;
9948;SDS011;5013;51.840;8.276;2023-11-21T07:13:01;38.50;;;24.53;;
9948;SDS011;5013;51.840;8.276;2023-11-21T07:15:27;28.97;;;22.77;;
9948;SDS011;5013;51.840;8.276;2023-11-21T07:17:53;30.80;;;22.97;;
9948;SDS011;5013;51.840;8.276;2023-11-21T07:20:19;32.23;;;23.30;;
9948;SDS011;5013;51.840;8.276;2023-11-21T07:22:44;44.27;;;26.30;;
9948;SDS011;5013;51.840;8.276;2023-11-21T07:25:10;42.10;;;27.17;;
9948;SDS011;5013;51.840;8.276;2023-11-21T07:27:36;49.93;;;31.43;;
9948;SDS011;5013;51.840;8.276;2023-11-21T07:30:02;60.00;;;35.47;;
9948;SDS011;5013;51.840;8.276;2023-11-21T07:32:30;52.97;;;30.20;;
9948;SDS011;5013;51.840;8.276;2023-11-21T07:34:56;49.23;;;31.07;;
9948;SDS011;5013;51.840;8.276;2023-11-21T07:37:24;61.63;;;33.17;;
9948;SDS011;5013;51.840;8.276;2023-11-21T07:39:51;60.77;;;33.90;;
9948;SDS011;5013;51.840;8.276;2023-11-21T07:42:21;70.47;;;37.57;;
9948;SDS011;5013;51.840;8.276;2023-11-21T07:44:51;72.30;;;35.50;;
9948;SDS011;5013;51.840;8.276;2023-11-21T07:47:21;69.67;;;36.90;;
9948;SDS011;5013;51.840;8.276;2023-11-21T07:49:47;77.40;;;38.37;;
9948;SDS011;5013;51.840;8.276;2023-11-21T07:52:13;81.97;;;39.63;;
9948;SDS011;5013;51.840;8.276;2023-11-21T07:54:41;103.43;;;42.43;;
9948;SDS011;5013;51.840;8.276;2023-11-21T07:57:07;99.63;;;43.17;;
9948;SDS011;5013;51.840;8.276;2023-11-21T07:59:32;133.43;;;49.63;;
9948;SDS011;5013;51.840;8.276;2023-11-21T08:01:58;126.40;;;47.63;;
9948;SDS011;5013;51.840;8.276;2023-11-21T08:04:24;148.03;;;50.90;;
9948;SDS011;5013;51.840;8.276;2023-11-21T08:06:49;135.10;;;50.37;;
9948;SDS011;5013;51.840;8.276;2023-11-21T08:09:16;118.97;;;48.90;;
9948;SDS011;5013;51.840;8.276;2023-11-21T08:11:42;112.87;;;45.00;;
9948;SDS011;5013;51.840;8.276;2023-11-21T08:14:08;122.53;;;44.93;;
9948;SDS011;5013;51.840;8.276;2023-11-21T08:16:33;102.53;;;42.47;;
9948;SDS011;5013;51.840;8.276;2023-11-21T08:18:59;107.67;;;44.17;;
9948;SDS011;5013;51.840;8.276;2023-11-21T08:21:24;95.63;;;40.33;;
9948;SDS011;5013;51.840;8.276;2023-11-21T08:23:52;87.73;;;38.90;;
9948;SDS011;5013;51.840;8.276;2023-11-21T08:26:19;84.67;;;38.17;;
9948;SDS011;5013;51.840;8.276;2023-11-21T08:28:45;83.83;;;37.63;;
9948;SDS011;5013;51.840;8.276;2023-11-21T08:31:12;75.60;;;35.40;;
9948;SDS011;5013;51.840;8.276;2023-11-21T08:33:38;68.47;;;34.00;;
9948;SDS011;5013;51.840;8.276;2023-11-21T08:36:06;82.80;;;36.43;;
9948;SDS011;5013;51.840;8.276;2023-11-21T08:38:33;67.63;;;33.00;;
9948;SDS011;5013;51.840;8.276;2023-11-21T08:41:02;94.80;;;39.23;;
9948;SDS011;5013;51.840;8.276;2023-11-21T08:43:35;79.37;;;37.33;;
9948;SDS011;5013;51.840;8.276;2023-11-21T08:46:00;75.77;;;36.77;;
9948;SDS011;5013;51.840;8.276;2023-11-21T08:48:26;79.67;;;36.83;;
9948;SDS011;5013;51.840;8.276;2023-11-21T08:50:53;88.07;;;37.97;;
9948;SDS011;5013;51.840;8.276;2023-11-21T08:53:19;68.37;;;34.80;;
9948;SDS011;5013;51.840;8.276;2023-11-21T08:55:44;76.27;;;36.87;;
9948;SDS011;5013;51.840;8.276;2023-11-21T08:58:10;95.13;;;39.70;;
9948;SDS011;5013;51.840;8.276;2023-11-21T09:00:37;79.70;;;37.60;;
9948;SDS011;5013;51.840;8.276;2023-11-21T09:03:04;83.80;;;38.23;;
9948;SDS011;5013;51.840;8.276;2023-11-21T09:05:33;88.97;;;39.23;;
9948;SDS011;5013;51.840;8.276;2023-11-21T09:08:02;68.10;;;36.83;;
9948;SDS011;5013;51.840;8.276;2023-11-21T09:10:27;87.27;;;40.23;;
9948;SDS011;5013;51.840;8.276;2023-11-21T09:12:53;87.93;;;38.87;;
9948;SDS011;5013;51.840;8.276;2023-11-21T09:15:19;116.47;;;43.77;;
9948;SDS011;5013;51.840;8.276;2023-11-21T09:17:45;104.27;;;41.50;;
9948;SDS011;5013;51.840;8.276;2023-11-21T09:20:11;89.57;;;38.43;;
9948;SDS011;5013;51.840;8.276;2023-11-21T09:22:37;88.97;;;38.63;;
9948;SDS011;5013;51.840;8.276;2023-11-21T09:25:03;66.20;;;33.97;;
9948;SDS011;5013;51.840;8.276;2023-11-21T09:27:30;79.07;;;35.73;;
9948;SDS011;5013;51.840;8.276;2023-11-21T09:29:56;60.47;;;32.93;;
9948;SDS011;5013;51.840;8.276;2023-11-21T09:32:23;56.97;;;30.97;;
9948;SDS011;5013;51.840;8.276;2023-11-21T09:34:49;74.13;;;34.90;;
9948;SDS011;5013;51.840;8.276;2023-11-21T09:37:15;67.50;;;34.17;;
9948;SDS011;5013;51.840;8.276;2023-11-21T09:39:41;73.23;;;34.43;;
9948;SDS011;5013;51.840;8.276;2023-11-21T09:47:50;62.80;;;32.00;;
9948;SDS011;5013;51.840;8.276;2023-11-21T09:50:18;66.47;;;33.93;;
9948;SDS011;5013;51.840;8.276;2023-11-21T09:53:09;69.37;;;32.47;;
9948;SDS011;5013;51.840;8.276;2023-11-21T09:55:43;60.83;;;32.20;;
9948;SDS011;5013;51.840;8.276;2023-11-21T09:58:10;73.77;;;34.50;;
9948;SDS011;5013;51.840;8.276;2023-11-21T10:00:43;99.80;;;40.27;;
9948;SDS011;5013;51.840;8.276;2023-11-21T10:03:11;68.03;;;34.17;;
9948;SDS011;5013;51.840;8.276;2023-11-21T10:05:38;87.70;;;36.80;;
9948;SDS011;5013;51.840;8.276;2023-11-21T10:08:04;77.67;;;35.80;;
9948;SDS011;5013;51.840;8.276;2023-11-21T10:10:34;65.40;;;34.97;;
9948;SDS011;5013;51.840;8.276;2023-11-21T10:13:02;82.30;;;36.27;;
9948;SDS011;5013;51.840;8.276;2023-11-21T10:15:31;81.40;;;37.03;;
9948;SDS011;5013;51.840;8.276;2023-11-21T10:17:59;97.43;;;39.77;;
9948;SDS011;5013;51.840;8.276;2023-11-21T10:20:32;65.60;;;33.37;;
9948;SDS011;5013;51.840;8.276;2023-11-21T10:23:03;64.63;;;33.13;;
9948;SDS011;5013;51.840;8.276;2023-11-21T10:25:29;59.03;;;31.73;;
9948;SDS011;5013;51.840;8.276;2023-11-21T10:27:59;61.47;;;31.70;;
9948;SDS011;5013;51.840;8.276;2023-11-21T10:30:36;53.90;;;27.83;;
9948;SDS011;5013;51.840;8.276;2023-11-21T10:33:03;57.83;;;28.30;;
9948;SDS011;5013;51.840;8.276;2023-11-21T10:38:12;42.70;;;24.77;;
9948;SDS011;5013;51.840;8.276;2023-11-21T10:40:39;45.77;;;25.03;;
9948;SDS011;5013;51.840;8.276;2023-11-21T10:43:09;54.97;;;26.73;;
9948;SDS011;5013;51.840;8.276;2023-11-21T10:45:39;37.83;;;21.67;;
9948;SDS011;5013;51.840;8.276;2023-11-21T10:48:05;36.83;;;22.57;;
9948;SDS011;5013;51.840;8.276;2023-11-21T10:50:35;36.87;;;22.20;;
9948;SDS011;5013;51.840;8.276;2023-11-21T10:53:02;38.97;;;20.80;;
9948;SDS011;5013;51.840;8.276;2023-11-21T10:55:29;35.93;;;22.00;;
9948;SDS011;5013;51.840;8.276;2023-11-21T10:57:57;35.13;;;20.37;;
9948;SDS011;5013;51.840;8.276;2023-11-21T11:00:24;33.20;;;20.23;;
9948;SDS011;5013;51.840;8.276;2023-11-21T11:02:52;28.07;;;18.63;;
9948;SDS011;5013;51.840;8.276;2023-11-21T11:05:28;26.23;;;17.70;;
9948;SDS011;5013;51.840;8.276;2023-11-21T11:07:58;25.77;;;17.53;;
9948;SDS011;5013;51.840;8.276;2023-11-21T11:10:32;26.40;;;17.33;;
9948;SDS011;5013;51.840;8.276;2023-11-21T11:12:58;24.17;;;17.80;;
9948;SDS011;5013;51.840;8.276;2023-11-21T11:15:25;26.23;;;17.33;;
9948;SDS011;5013;51.840;8.276;2023-11-21T11:17:52;20.50;;;16.23;;
9948;SDS011;5013;51.840;8.276;2023-11-21T11:20:22;22.47;;;16.20;;
9948;SDS011;5013;51.840;8.276;2023-11-21T11:22:57;19.90;;;14.07;;
9948;SDS011;5013;51.840;8.276;2023-11-21T11:28:04;18.37;;;13.53;;
9948;SDS011;5013;51.840;8.276;2023-11-21T11:36:10;14.13;;;11.90;;
9948;SDS011;5013;51.840;8.276;2023-11-21T11:38:45;12.97;;;11.57;;
9948;SDS011;5013;51.840;8.276;2023-11-21T11:41:11;12.43;;;11.03;;
9948;SDS011;5013;51.840;8.276;2023-11-21T11:43:37;12.27;;;11.07;;
9948;SDS011;5013;51.840;8.276;2023-11-21T11:46:09;13.30;;;11.97;;
9948;SDS011;5013;51.840;8.276;2023-11-21T11:48:39;13.97;;;12.43;;
9948;SDS011;5013;51.840;8.276;2023-11-21T11:51:06;13.10;;;11.77;;
9948;SDS011;5013;51.840;8.276;2023-11-21T11:53:37;11.17;;;10.10;;
9948;SDS011;5013;51.840;8.276;2023-11-21T11:58:53;11.27;;;10.17;;
9948;SDS011;5013;51.840;8.276;2023-11-21T12:01:20;10.37;;;9.47;;
9948;SDS011;5013;51.840;8.276;2023-11-21T12:06:42;9.83;;;8.83;;
9948;SDS011;5013;51.840;8.276;2023-11-21T12:09:17;9.97;;;8.97;;
9948;SDS011;5013;51.840;8.276;2023-11-21T12:11:44;10.20;;;8.93;;
9948;SDS011;5013;51.840;8.276;2023-11-21T12:14:11;10.10;;;8.00;;
9948;SDS011;5013;51.840;8.276;2023-11-21T12:16:38;8.67;;;7.60;;
9948;SDS011;5013;51.840;8.276;2023-11-21T12:19:04;9.20;;;8.37;;
9948;SDS011;5013;51.840;8.276;2023-11-21T12:21:30;8.97;;;8.20;;
9948;SDS011;5013;51.840;8.276;2023-11-21T12:23:57;10.40;;;8.20;;
9948;SDS011;5013;51.840;8.276;2023-11-21T12:26:23;8.93;;;8.03;;
9948;SDS011;5013;51.840;8.276;2023-11-21T12:28:52;9.17;;;8.13;;
9948;SDS011;5013;51.840;8.276;2023-11-21T12:31:20;9.07;;;7.93;;
9948;SDS011;5013;51.840;8.276;2023-11-21T12:33:49;9.07;;;8.17;;
9948;SDS011;5013;51.840;8.276;2023-11-21T12:36:16;8.20;;;7.30;;
9948;SDS011;5013;51.840;8.276;2023-11-21T12:38:41;8.17;;;7.47;;
9948;SDS011;5013;51.840;8.276;2023-11-21T12:41:08;8.43;;;7.73;;
9948;SDS011;5013;51.840;8.276;2023-11-21T12:43:36;8.57;;;7.53;;
9948;SDS011;5013;51.840;8.276;2023-11-21T12:46:10;8.33;;;7.63;;
9948;SDS011;5013;51.840;8.276;2023-11-21T12:48:39;10.47;;;9.53;;
9948;SDS011;5013;51.840;8.276;2023-11-21T12:51:09;11.37;;;10.20;;
9948;SDS011;5013;51.840;8.276;2023-11-21T12:53:36;11.60;;;10.40;;
9948;SDS011;5013;51.840;8.276;2023-11-21T12:56:06;14.07;;;11.77;;
9948;SDS011;5013;51.840;8.276;2023-11-21T12:58:34;14.13;;;11.77;;
9948;SDS011;5013;51.840;8.276;2023-11-21T13:01:01;14.87;;;11.73;;
9948;SDS011;5013;51.840;8.276;2023-11-21T13:03:29;13.07;;;11.73;;
9948;SDS011;5013;51.840;8.276;2023-11-21T13:05:55;19.77;;;12.60;;
9948;SDS011;5013;51.840;8.276;2023-11-21T13:08:22;12.97;;;11.50;;
9948;SDS011;5013;51.840;8.276;2023-11-21T13:10:55;14.47;;;11.37;;
9948;SDS011;5013;51.840;8.276;2023-11-21T13:13:22;12.90;;;11.60;;
9948;SDS011;5013;51.840;8.276;2023-11-21T13:15:53;12.40;;;11.10;;
9948;SDS011;5013;51.840;8.276;2023-11-21T13:18:25;14.87;;;11.90;;
9948;SDS011;5013;51.840;8.276;2023-11-21T13:20:52;13.83;;;11.80;;
9948;SDS011;5013;51.840;8.276;2023-11-21T13:23:22;14.33;;;12.57;;
9948;SDS011;5013;51.840;8.276;2023-11-21T13:25:49;14.43;;;12.33;;
9948;SDS011;5013;51.840;8.276;2023-11-21T13:28:15;13.57;;;11.93;;
9948;SDS011;5013;51.840;8.276;2023-11-21T13:30:41;14.87;;;11.80;;
9948;SDS011;5013;51.840;8.276;2023-11-21T13:33:07;13.50;;;12.20;;
9948;SDS011;5013;51.840;8.276;2023-11-21T13:35:37;16.23;;;12.40;;
9948;SDS011;5013;51.840;8.276;2023-11-21T13:38:07;13.17;;;11.63;;
9948;SDS011;5013;51.840;8.276;2023-11-21T13:40:35;16.17;;;13.30;;
9948;SDS011;5013;51.840;8.276;2023-11-21T13:43:08;14.63;;;12.70;;
9948;SDS011;5013;51.840;8.276;2023-11-21T13:45:38;12.77;;;11.47;;
9948;SDS011;5013;51.840;8.276;2023-11-21T13:48:05;15.60;;;12.40;;
9948;SDS011;5013;51.840;8.276;2023-11-21T13:50:44;20.33;;;12.07;;
9948;SDS011;5013;51.840;8.276;2023-11-21T13:53:20;14.70;;;12.50;;
9948;SDS011;5013;51.840;8.276;2023-11-21T13:55:49;13.63;;;12.23;;
9948;SDS011;5013;51.840;8.276;2023-11-21T13:58:25;13.17;;;10.90;;
9948;SDS011;5013;51.840;8.276;2023-11-21T14:01:11;13.33;;;11.77;;
9948;SDS011;5013;51.840;8.276;2023-11-21T14:04:01;12.30;;;11.00;;
9948;SDS011;5013;51.840;8.276;2023-11-21T14:06:45;13.40;;;11.37;;
9948;SDS011;5013;51.840;8.276;2023-11-21T14:09:15;14.00;;;11.73;;
9948;SDS011;5013;51.840;8.276;2023-11-21T14:11:52;13.20;;;11.70;;
9948;SDS011;5013;51.840;8.276;2023-11-21T14:14:20;17.53;;;12.67;;
9948;SDS011;5013;51.840;8.276;2023-11-21T14:16:47;15.03;;;11.57;;
9948;SDS011;5013;51.840;8.276;2023-11-21T14:19:12;14.63;;;11.63;;
9948;SDS011;5013;51.840;8.276;2023-11-21T14:21:47;12.13;;;10.90;;
9948;SDS011;5013;51.840;8.276;2023-11-21T14:24:18;14.10;;;11.70;;
9948;SDS011;5013;51.840;8.276;2023-11-21T14:26:44;12.40;;;10.97;;
9948;SDS011;5013;51.840;8.276;2023-11-21T14:29:11;12.17;;;10.77;;
9948;SDS011;5013;51.840;8.276;2023-11-21T14:31:39;12.43;;;10.73;;
9948;SDS011;5013;51.840;8.276;2023-11-21T14:34:06;10.37;;;9.50;;
9948;SDS011;5013;51.840;8.276;2023-11-21T14:36:33;11.80;;;9.73;;
9948;SDS011;5013;51.840;8.276;2023-11-21T14:39:02;10.70;;;9.60;;
9948;SDS011;5013;51.840;8.276;2023-11-21T14:41:32;11.23;;;9.63;;
9948;SDS011;5013;51.840;8.276;2023-11-21T14:44:00;11.23;;;9.47;;
9948;SDS011;5013;51.840;8.276;2023-11-21T14:46:27;13.10;;;11.70;;
9948;SDS011;5013;51.840;8.276;2023-11-21T14:48:53;11.73;;;10.53;;
9948;SDS011;5013;51.840;8.276;2023-11-21T14:51:27;12.87;;;11.37;;
9948;SDS011;5013;51.840;8.276;2023-11-21T14:53:57;13.27;;;11.17;;
9948;SDS011;5013;51.840;8.276;2023-11-21T14:56:31;12.30;;;11.10;;
9948;SDS011;5013;51.840;8.276;2023-11-21T14:58:59;13.70;;;10.97;;
9948;SDS011;5013;51.840;8.276;2023-11-21T15:01:32;14.17;;;11.50;;
9948;SDS011;5013;51.840;8.276;2023-11-21T15:04:18;13.53;;;11.60;;
9948;SDS011;5013;51.840;8.276;2023-11-21T15:07:02;13.83;;;10.30;;
9948;SDS011;5013;51.840;8.276;2023-11-21T15:09:31;13.33;;;9.87;;
9948;SDS011;5013;51.840;8.276;2023-11-21T15:11:56;28.80;;;18.87;;